Terminal Aerodrome Forecast
Issued by NWS Omaha/Valley, NE

Home | Current Version | Previous Version | Text Only | Print | Product List | Glossary On
Versions: 1 2 3 4 5 6 7 8 9 10 11 12 13 14 15 16 17 18 19 20 21 22 23 24 25 26 27
000
FTUS43 KOAX 232334
TAFOFK
TAF
KOFK 232334Z 2400/2424 04007KT P6SM SCT015
      TEMPO 2401/2403 P6SM BKN015
     FM240300 04005KT P6SM BKN015
     FM241200 04006KT 3/4SM -SN OVC006
     FM241900 04006KT 1/2SM SN OVC008
     FM242200 32007KT 3SM -SN BKN020=

USA.gov is the U.S. government's official web portal to all federal, state and local government web resources and services.